sensor_id;sensor_type;location;lat;lon;timestamp;pressure;altitude;pressure_sealevel;temperature;humidity
65983;BME280;52740;40.620;-8.640;2022-10-16T00:01:31;101273.84;;;16.84;100.00
65983;BME280;52740;40.620;-8.640;2022-10-16T00:03:32;101273.03;;;16.87;100.00
65983;BME280;52740;40.620;-8.640;2022-10-16T00:05:38;101272.66;;;16.89;100.00
65983;BME280;52740;40.620;-8.640;2022-10-16T00:07:40;101269.09;;;16.88;100.00
65983;BME280;52740;40.620;-8.640;2022-10-16T00:09:41;101262.38;;;16.86;100.00
65983;BME280;52740;40.620;-8.640;2022-10-16T00:11:42;101260.41;;;16.83;100.00
65983;BME280;52740;40.620;-8.640;2022-10-16T00:13:43;101262.75;;;16.77;100.00
65983;BME280;52740;40.620;-8.640;2022-10-16T00:15:45;101259.63;;;16.75;100.00
65983;BME280;52740;40.620;-8.640;2022-10-16T00:17:46;101256.06;;;16.71;100.00
65983;BME280;52740;40.620;-8.640;2022-10-16T00:19:47;101261.19;;;16.69;100.00
65983;BME280;52740;40.620;-8.640;2022-10-16T00:21:48;101257.63;;;16.72;100.00
65983;BME280;52740;40.620;-8.640;2022-10-16T00:23:54;101253.28;;;16.78;100.00
65983;BME280;52740;40.620;-8.640;2022-10-16T00:26:00;101250.91;;;16.73;100.00
65983;BME280;52740;40.620;-8.640;2022-10-16T00:28:01;101232.75;;;16.61;100.00
65983;BME280;52740;40.620;-8.640;2022-10-16T00:30:02;101241.44;;;16.71;100.00
65983;BME280;52740;40.620;-8.640;2022-10-16T00:32:03;101250.53;;;16.71;100.00
65983;BME280;52740;40.620;-8.640;2022-10-16T00:34:04;101245.00;;;16.75;100.00
65983;BME280;52740;40.620;-8.640;2022-10-16T00:36:06;101239.84;;;16.77;100.00
65983;BME280;52740;40.620;-8.640;2022-10-16T00:38:07;101239.84;;;16.80;100.00
65983;BME280;52740;40.620;-8.640;2022-10-16T00:40:08;101233.13;;;16.78;100.00
65983;BME280;52740;40.620;-8.640;2022-10-16T00:42:15;101231.13;;;16.85;100.00
65983;BME280;52740;40.620;-8.640;2022-10-16T00:44:51;101231.56;;;16.84;100.00
65983;BME280;52740;40.620;-8.640;2022-10-16T00:46:57;101211.00;;;16.71;100.00
65983;BME280;52740;40.620;-8.640;2022-10-16T00:49:14;101224.44;;;16.79;100.00
65983;BME280;52740;40.620;-8.640;2022-10-16T00:51:18;101222.44;;;16.76;100.00
65983;BME280;52740;40.620;-8.640;2022-10-16T00:53:21;101227.59;;;16.74;100.00
65983;BME280;52740;40.620;-8.640;2022-10-16T00:55:22;101222.47;;;16.65;100.00
65983;BME280;52740;40.620;-8.640;2022-10-16T00:57:24;101225.63;;;16.64;100.00
65983;BME280;52740;40.620;-8.640;2022-10-16T00:59:27;101222.47;;;16.69;100.00
65983;BME280;52740;40.620;-8.640;2022-10-16T01:01:28;101222.06;;;16.78;100.00
65983;BME280;52740;40.620;-8.640;2022-10-16T01:03:32;101223.66;;;16.79;100.00
65983;BME280;52740;40.620;-8.640;2022-10-16T01:05:49;101224.81;;;16.81;100.00
65983;BME280;52740;40.620;-8.640;2022-10-16T01:08:01;101223.25;;;16.84;100.00
65983;BME280;52740;40.620;-8.640;2022-10-16T01:10:35;101220.88;;;16.82;100.00
65983;BME280;52740;40.620;-8.640;2022-10-16T01:14:58;101213.72;;;16.95;100.00
65983;BME280;52740;40.620;-8.640;2022-10-16T01:17:12;101207.41;;;16.95;100.00
65983;BME280;52740;40.620;-8.640;2022-10-16T01:19:24;101205.03;;;16.97;100.00
65983;BME280;52740;40.620;-8.640;2022-10-16T01:21:36;101206.63;;;17.01;100.00
65983;BME280;52740;40.620;-8.640;2022-10-16T01:23:56;101195.16;;;16.99;100.00
65983;BME280;52740;40.620;-8.640;2022-10-16T01:28:15;101213.72;;;17.06;100.00
65983;BME280;52740;40.620;-8.640;2022-10-16T01:30:23;101212.50;;;17.07;100.00
65983;BME280;52740;40.620;-8.640;2022-10-16T01:32:49;101206.19;;;17.10;100.00
65983;BME280;52740;40.620;-8.640;2022-10-16T01:35:11;101206.59;;;17.08;100.00
65983;BME280;52740;40.620;-8.640;2022-10-16T01:37:21;101210.19;;;17.02;100.00
65983;BME280;52740;40.620;-8.640;2022-10-16T01:39:28;101208.97;;;17.03;100.00
65983;BME280;52740;40.620;-8.640;2022-10-16T01:41:37;101213.72;;;16.99;100.00
65983;BME280;52740;40.620;-8.640;2022-10-16T01:43:44;101210.97;;;16.95;100.00
65983;BME280;52740;40.620;-8.640;2022-10-16T01:45:46;101207.41;;;16.91;100.00
65983;BME280;52740;40.620;-8.640;2022-10-16T01:47:48;101205.84;;;16.90;100.00
65983;BME280;52740;40.620;-8.640;2022-10-16T01:49:50;101209.03;;;16.89;100.00
65983;BME280;52740;40.620;-8.640;2022-10-16T01:51:54;101198.72;;;16.82;100.00
65983;BME280;52740;40.620;-8.640;2022-10-16T01:53:58;101207.03;;;16.89;100.00
65983;BME280;52740;40.620;-8.640;2022-10-16T01:56:02;101207.41;;;16.91;100.00
65983;BME280;52740;40.620;-8.640;2022-10-16T01:58:07;101203.84;;;16.91;100.00
65983;BME280;52740;40.620;-8.640;2022-10-16T02:00:12;101210.97;;;16.95;100.00
65983;BME280;52740;40.620;-8.640;2022-10-16T02:02:15;101202.66;;;16.95;100.00
65983;BME280;52740;40.620;-8.640;2022-10-16T02:04:29;101199.88;;;16.99;100.00
65983;BME280;52740;40.620;-8.640;2022-10-16T02:06:32;101193.22;;;16.89;100.00
65983;BME280;52740;40.620;-8.640;2022-10-16T02:08:33;101201.09;;;17.01;100.00
65983;BME280;52740;40.620;-8.640;2022-10-16T02:10:35;101191.59;;;16.99;100.00
65983;BME280;52740;40.620;-8.640;2022-10-16T02:12:40;101197.91;;;17.03;100.00
65983;BME280;52740;40.620;-8.640;2022-10-16T02:14:43;101194.38;;;16.92;100.00
65983;BME280;52740;40.620;-8.640;2022-10-16T02:16:45;101198.31;;;17.01;100.00
65983;BME280;52740;40.620;-8.640;2022-10-16T02:18:46;101197.53;;;16.97;100.00
65983;BME280;52740;40.620;-8.640;2022-10-16T02:22:51;101204.63;;;16.98;100.00
65983;BME280;52740;40.620;-8.640;2022-10-16T02:24:59;101202.66;;;16.95;100.00
65983;BME280;52740;40.620;-8.640;2022-10-16T02:29:24;101207.44;;;16.88;100.00
65983;BME280;52740;40.620;-8.640;2022-10-16T02:31:28;101199.50;;;16.90;100.00
65983;BME280;52740;40.620;-8.640;2022-10-16T02:33:33;101200.72;;;16.89;100.00
65983;BME280;52740;40.620;-8.640;2022-10-16T02:35:36;101197.94;;;16.85;100.00
65983;BME280;52740;40.620;-8.640;2022-10-16T02:37:38;101197.16;;;16.85;100.00
65983;BME280;52740;40.620;-8.640;2022-10-16T02:39:41;101192.41;;;16.85;100.00
65983;BME280;52740;40.620;-8.640;2022-10-16T02:41:42;101180.19;;;16.79;100.00
65983;BME280;52740;40.620;-8.640;2022-10-16T02:43:43;101177.78;;;16.78;100.00
65983;BME280;52740;40.620;-8.640;2022-10-16T02:45:43;101183.72;;;16.76;100.00
65983;BME280;52740;40.620;-8.640;2022-10-16T02:47:44;101173.06;;;16.75;100.00
65983;BME280;52740;40.620;-8.640;2022-10-16T02:49:45;101163.19;;;16.70;100.00
65983;BME280;52740;40.620;-8.640;2022-10-16T02:51:45;101172.25;;;16.78;100.00
65983;BME280;52740;40.620;-8.640;2022-10-16T02:53:46;101167.13;;;16.73;100.00
65983;BME280;52740;40.620;-8.640;2022-10-16T02:55:47;101162.00;;;16.78;100.00
65983;BME280;52740;40.620;-8.640;2022-10-16T02:57:47;101153.72;;;16.71;100.00
65983;BME280;52740;40.620;-8.640;2022-10-16T02:59:48;101162.41;;;16.80;100.00
65983;BME280;52740;40.620;-8.640;2022-10-16T03:01:49;101160.00;;;16.79;100.00
65983;BME280;52740;40.620;-8.640;2022-10-16T03:03:49;101153.69;;;16.78;100.00
65983;BME280;52740;40.620;-8.640;2022-10-16T03:05:50;101156.06;;;16.76;100.00
65983;BME280;52740;40.620;-8.640;2022-10-16T03:07:51;101153.28;;;16.76;100.00
65983;BME280;52740;40.620;-8.640;2022-10-16T03:09:53;101157.63;;;16.77;100.00
65983;BME280;52740;40.620;-8.640;2022-10-16T03:11:54;101163.56;;;16.83;100.00
65983;BME280;52740;40.620;-8.640;2022-10-16T03:13:55;101167.94;;;16.80;100.00
65983;BME280;52740;40.620;-8.640;2022-10-16T03:15:56;101166.31;;;16.83;100.00
65983;BME280;52740;40.620;-8.640;2022-10-16T03:18:00;101165.16;;;16.80;100.00
65983;BME280;52740;40.620;-8.640;2022-10-16T03:20:00;101165.53;;;16.79;100.00
65983;BME280;52740;40.620;-8.640;2022-10-16T03:22:02;101151.31;;;16.73;100.00
65983;BME280;52740;40.620;-8.640;2022-10-16T03:24:02;101151.75;;;16.72;100.00
65983;BME280;52740;40.620;-8.640;2022-10-16T03:26:03;101157.63;;;16.77;100.00
65983;BME280;52740;40.620;-8.640;2022-10-16T03:28:04;101159.25;;;16.71;100.00
65983;BME280;52740;40.620;-8.640;2022-10-16T03:30:05;101156.06;;;16.73;100.00
65983;BME280;52740;40.620;-8.640;2022-10-16T03:32:06;101152.91;;;16.71;100.00
65983;BME280;52740;40.620;-8.640;2022-10-16T03:34:07;101138.28;;;16.63;100.00
65983;BME280;52740;40.620;-8.640;2022-10-16T03:36:07;101146.59;;;16.63;100.00
65983;BME280;52740;40.620;-8.640;2022-10-16T03:38:08;101155.28;;;16.72;100.00
65983;BME280;52740;40.620;-8.640;2022-10-16T03:40:09;101146.22;;;16.61;100.00
65983;BME280;52740;40.620;-8.640;2022-10-16T03:42:10;101148.97;;;16.61;100.00
65983;BME280;52740;40.620;-8.640;2022-10-16T03:44:11;101149.00;;;16.57;100.00
65983;BME280;52740;40.620;-8.640;2022-10-16T03:46:11;101156.88;;;16.59;100.00
65983;BME280;52740;40.620;-8.640;2022-10-16T03:48:12;101163.59;;;16.68;100.00
65983;BME280;52740;40.620;-8.640;2022-10-16T03:50:13;101160.03;;;16.61;100.00
65983;BME280;52740;40.620;-8.640;2022-10-16T03:52:13;101158.47;;;16.60;100.00
65983;BME280;52740;40.620;-8.640;2022-10-16T03:54:14;101158.47;;;16.60;100.00
65983;BME280;52740;40.620;-8.640;2022-10-16T03:56:15;101148.19;;;16.60;100.00
65983;BME280;52740;40.620;-8.640;2022-10-16T03:58:16;101152.94;;;16.60;100.00
65983;BME280;52740;40.620;-8.640;2022-10-16T04:00:17;101152.94;;;16.60;100.00
65983;BME280;52740;40.620;-8.640;2022-10-16T04:02:17;101141.84;;;16.53;100.00
65983;BME280;52740;40.620;-8.640;2022-10-16T04:04:18;101149.78;;;16.61;100.00
65983;BME280;52740;40.620;-8.640;2022-10-16T04:06:19;101146.22;;;16.61;100.00
65983;BME280;52740;40.620;-8.640;2022-10-16T04:08:19;101145.41;;;16.60;100.00
65983;BME280;52740;40.620;-8.640;2022-10-16T04:10:20;101144.63;;;16.60;100.00
65983;BME280;52740;40.620;-8.640;2022-10-16T04:12:21;101139.09;;;16.60;100.00
65983;BME280;52740;40.620;-8.640;2022-10-16T04:14:22;101136.75;;;16.62;100.00
65983;BME280;52740;40.620;-8.640;2022-10-16T04:16:22;101137.91;;;16.61;100.00
65983;BME280;52740;40.620;-8.640;2022-10-16T04:18:23;101127.66;;;16.58;100.00
65983;BME280;52740;40.620;-8.640;2022-10-16T04:20:24;101133.97;;;16.58;100.00
65983;BME280;52740;40.620;-8.640;2022-10-16T04:22:24;101133.19;;;16.58;100.00
65983;BME280;52740;40.620;-8.640;2022-10-16T04:24:25;101133.56;;;16.60;100.00
65983;BME280;52740;40.620;-8.640;2022-10-16T04:26:26;101122.91;;;16.62;100.00
65983;BME280;52740;40.620;-8.640;2022-10-16T04:28:27;101129.22;;;16.62;100.00
65983;BME280;52740;40.620;-8.640;2022-10-16T04:30:28;101130.00;;;16.59;100.00
65983;BME280;52740;40.620;-8.640;2022-10-16T04:32:29;101128.44;;;16.65;100.00
65983;BME280;52740;40.620;-8.640;2022-10-16T04:34:30;101130.41;;;16.65;100.00
65983;BME280;52740;40.620;-8.640;2022-10-16T04:36:30;101131.59;;;16.60;100.00
65983;BME280;52740;40.620;-8.640;2022-10-16T04:38:31;101132.38;;;16.61;100.00
65983;BME280;52740;40.620;-8.640;2022-10-16T04:40:32;101133.97;;;16.62;100.00
65983;BME280;52740;40.620;-8.640;2022-10-16T04:42:33;101133.19;;;16.61;100.00
65983;BME280;52740;40.620;-8.640;2022-10-16T04:44:33;101132.38;;;16.61;100.00
65983;BME280;52740;40.620;-8.640;2022-10-16T04:46:34;101147.00;;;16.61;100.00
65983;BME280;52740;40.620;-8.640;2022-10-16T04:48:35;101148.19;;;16.64;100.00
65983;BME280;52740;40.620;-8.640;2022-10-16T04:50:36;101138.72;;;16.61;100.00
65983;BME280;52740;40.620;-8.640;2022-10-16T04:52:39;101156.06;;;16.69;100.00
65983;BME280;52740;40.620;-8.640;2022-10-16T04:54:40;101149.34;;;16.63;100.00
65983;BME280;52740;40.620;-8.640;2022-10-16T04:56:40;101141.50;;;16.58;100.00
65983;BME280;52740;40.620;-8.640;2022-10-16T04:58:47;101161.22;;;16.67;100.00
65983;BME280;52740;40.620;-8.640;2022-10-16T05:00:48;101158.84;;;16.69;100.00
65983;BME280;52740;40.620;-8.640;2022-10-16T05:02:50;101160.03;;;16.68;100.00
65983;BME280;52740;40.620;-8.640;2022-10-16T05:04:51;101146.22;;;16.61;100.00
65983;BME280;52740;40.620;-8.640;2022-10-16T05:06:52;101152.91;;;16.63;100.00
65983;BME280;52740;40.620;-8.640;2022-10-16T05:08:53;101152.94;;;16.67;100.00
65983;BME280;52740;40.620;-8.640;2022-10-16T05:10:53;101161.22;;;16.67;100.00
65983;BME280;52740;40.620;-8.640;2022-10-16T05:12:54;101150.56;;;16.62;100.00
65983;BME280;52740;40.620;-8.640;2022-10-16T05:14:55;101153.72;;;16.64;100.00
65983;BME280;52740;40.620;-8.640;2022-10-16T05:16:59;101151.31;;;16.55;100.00
65983;BME280;52740;40.620;-8.640;2022-10-16T05:19:00;101154.50;;;16.54;100.00
65983;BME280;52740;40.620;-8.640;2022-10-16T05:21:01;101163.59;;;16.61;100.00
65983;BME280;52740;40.620;-8.640;2022-10-16T05:23:02;101171.09;;;16.61;100.00
65983;BME280;52740;40.620;-8.640;2022-10-16T05:25:03;101166.38;;;16.58;100.00
65983;BME280;52740;40.620;-8.640;2022-10-16T05:27:04;101163.97;;;16.53;100.00
65983;BME280;52740;40.620;-8.640;2022-10-16T05:29:04;101167.94;;;16.59;100.00
65983;BME280;52740;40.620;-8.640;2022-10-16T05:31:06;101169.50;;;16.63;100.00
65983;BME280;52740;40.620;-8.640;2022-10-16T05:33:07;101168.72;;;16.59;100.00
65983;BME280;52740;40.620;-8.640;2022-10-16T05:35:08;101160.84;;;16.58;100.00
65983;BME280;52740;40.620;-8.640;2022-10-16T05:37:09;101167.16;;;16.58;100.00
65983;BME280;52740;40.620;-8.640;2022-10-16T05:39:10;101164.78;;;16.60;100.00
65983;BME280;52740;40.620;-8.640;2022-10-16T05:41:10;101162.41;;;16.59;100.00
65983;BME280;52740;40.620;-8.640;2022-10-16T05:43:11;101159.22;;;16.57;100.00
65983;BME280;52740;40.620;-8.640;2022-10-16T05:45:12;101161.59;;;16.55;100.00
65983;BME280;52740;40.620;-8.640;2022-10-16T05:47:13;101163.97;;;16.56;100.00
65983;BME280;52740;40.620;-8.640;2022-10-16T05:49:14;101163.19;;;16.56;100.00
65983;BME280;52740;40.620;-8.640;2022-10-16T05:51:15;101165.16;;;16.55;100.00
65983;BME280;52740;40.620;-8.640;2022-10-16T05:53:16;101167.91;;;16.55;100.00
65983;BME280;52740;40.620;-8.640;2022-10-16T05:55:16;101162.41;;;16.48;100.00
65983;BME280;52740;40.620;-8.640;2022-10-16T05:57:17;101169.50;;;16.56;100.00
65983;BME280;52740;40.620;-8.640;2022-10-16T05:59:18;101173.44;;;16.52;100.00
65983;BME280;52740;40.620;-8.640;2022-10-16T06:01:19;101166.34;;;16.44;100.00
65983;BME280;52740;40.620;-8.640;2022-10-16T06:03:21;101179.78;;;16.52;100.00
65983;BME280;52740;40.620;-8.640;2022-10-16T06:05:22;101173.44;;;16.52;100.00
65983;BME280;52740;40.620;-8.640;2022-10-16T06:07:23;101171.88;;;16.51;100.00
65983;BME280;52740;40.620;-8.640;2022-10-16T06:09:23;101190.84;;;16.49;100.00
65983;BME280;52740;40.620;-8.640;2022-10-16T06:11:27;101188.44;;;16.54;100.00
65983;BME280;52740;40.620;-8.640;2022-10-16T06:13:28;101194.78;;;16.51;100.00
65983;BME280;52740;40.620;-8.640;2022-10-16T06:15:29;101188.09;;;16.49;100.00
65983;BME280;52740;40.620;-8.640;2022-10-16T06:17:30;101192.41;;;16.50;100.00
65983;BME280;52740;40.620;-8.640;2022-10-16T06:19:31;101194.41;;;16.49;100.00
65983;BME280;52740;40.620;-8.640;2022-10-16T06:21:32;101193.63;;;16.49;100.00
65983;BME280;52740;40.620;-8.640;2022-10-16T06:23:35;101195.16;;;16.50;100.00
65983;BME280;52740;40.620;-8.640;2022-10-16T06:25:37;101181.75;;;16.41;100.00
65983;BME280;52740;40.620;-8.640;2022-10-16T06:27:40;101184.13;;;16.53;100.00
65983;BME280;52740;40.620;-8.640;2022-10-16T06:29:41;101189.66;;;16.57;100.00
65983;BME280;52740;40.620;-8.640;2022-10-16T06:31:43;101182.53;;;16.56;100.00
65983;BME280;52740;40.620;-8.640;2022-10-16T06:33:44;101185.31;;;16.63;100.00
65983;BME280;52740;40.620;-8.640;2022-10-16T06:35:47;101186.88;;;16.57;100.00
65983;BME280;52740;40.620;-8.640;2022-10-16T06:37:48;101196.38;;;16.56;100.00
65983;BME280;52740;40.620;-8.640;2022-10-16T06:39:48;101198.75;;;16.61;100.00
65983;BME280;52740;40.620;-8.640;2022-10-16T06:41:49;101194.03;;;16.61;100.00
65983;BME280;52740;40.620;-8.640;2022-10-16T06:43:50;101194.78;;;16.51;100.00
65983;BME280;52740;40.620;-8.640;2022-10-16T06:45:53;101201.09;;;16.55;100.00
65983;BME280;52740;40.620;-8.640;2022-10-16T06:47:54;101202.69;;;16.53;100.00
65983;BME280;52740;40.620;-8.640;2022-10-16T06:49:54;101204.31;;;16.57;100.00
65983;BME280;52740;40.620;-8.640;2022-10-16T06:51:55;101206.25;;;16.57;100.00
65983;BME280;52740;40.620;-8.640;2022-10-16T06:53:56;101191.66;;;16.60;100.00
65983;BME280;52740;40.620;-8.640;2022-10-16T06:55:57;101197.97;;;16.60;100.00
65983;BME280;52740;40.620;-8.640;2022-10-16T06:57:58;101192.06;;;16.62;100.00
65983;BME280;52740;40.620;-8.640;2022-10-16T06:59:59;101184.53;;;16.66;100.00
65983;BME280;52740;40.620;-8.640;2022-10-16T07:02:00;101181.00;;;16.58;100.00
65983;BME280;52740;40.620;-8.640;2022-10-16T07:04:01;101188.91;;;16.67;100.00
65983;BME280;52740;40.620;-8.640;2022-10-16T07:06:04;101189.66;;;16.67;100.00
65983;BME280;52740;40.620;-8.640;2022-10-16T07:08:05;101179.00;;;16.70;100.00
65983;BME280;52740;40.620;-8.640;2022-10-16T07:10:06;101193.25;;;16.72;100.00
65983;BME280;52740;40.620;-8.640;2022-10-16T07:12:07;101186.47;;;16.76;100.00
65983;BME280;52740;40.620;-8.640;2022-10-16T07:14:16;101188.84;;;16.81;100.00
65983;BME280;52740;40.620;-8.640;2022-10-16T07:16:19;101177.41;;;16.83;100.00
65983;BME280;52740;40.620;-8.640;2022-10-16T07:18:21;101182.91;;;16.86;100.00
65983;BME280;52740;40.620;-8.640;2022-10-16T07:20:26;101183.31;;;16.88;100.00
65983;BME280;52740;40.620;-8.640;2022-10-16T07:22:28;101185.69;;;16.86;100.00
65983;BME280;52740;40.620;-8.640;2022-10-16T07:24:29;101183.31;;;16.88;100.00
65983;BME280;52740;40.620;-8.640;2022-10-16T07:26:32;101192.41;;;16.92;100.00
65983;BME280;52740;40.620;-8.640;2022-10-16T07:28:34;101192.41;;;16.92;100.00
65983;BME280;52740;40.620;-8.640;2022-10-16T07:30:35;101190.00;;;16.94;100.00
65983;BME280;52740;40.620;-8.640;2022-10-16T07:32:37;101187.25;;;16.98;100.00
65983;BME280;52740;40.620;-8.640;2022-10-16T07:34:38;101191.59;;;16.99;100.00
65983;BME280;52740;40.620;-8.640;2022-10-16T07:36:39;101188.78;;;17.09;100.00
65983;BME280;52740;40.620;-8.640;2022-10-16T07:38:40;101193.16;;;17.10;100.00
65983;BME280;52740;40.620;-8.640;2022-10-16T07:40:42;101195.50;;;17.16;100.00
65983;BME280;52740;40.620;-8.640;2022-10-16T07:42:43;101198.66;;;17.18;100.00
65983;BME280;52740;40.620;-8.640;2022-10-16T07:44:44;101206.56;;;17.23;100.00
65983;BME280;52740;40.620;-8.640;2022-10-16T07:46:44;101189.53;;;17.21;100.00
65983;BME280;52740;40.620;-8.640;2022-10-16T07:48:45;101201.38;;;17.32;100.00
65983;BME280;52740;40.620;-8.640;2022-10-16T07:50:47;101202.13;;;17.39;100.00
65983;BME280;52740;40.620;-8.640;2022-10-16T07:52:48;101207.28;;;17.41;100.00
65983;BME280;52740;40.620;-8.640;2022-10-16T07:54:49;101191.47;;;17.41;100.00
65983;BME280;52740;40.620;-8.640;2022-10-16T07:56:49;101207.22;;;17.55;100.00
65983;BME280;52740;40.620;-8.640;2022-10-16T07:58:51;101210.41;;;17.53;100.00
65983;BME280;52740;40.620;-8.640;2022-10-16T08:00:52;101201.69;;;17.55;100.00
65983;BME280;52740;40.620;-8.640;2022-10-16T08:02:52;101211.16;;;17.68;100.00
65983;BME280;52740;40.620;-8.640;2022-10-16T08:04:53;101203.53;;;17.83;100.00
65983;BME280;52740;40.620;-8.640;2022-10-16T08:06:54;101209.47;;;17.88;100.00
65983;BME280;52740;40.620;-8.640;2022-10-16T08:08:55;101209.31;;;18.10;100.00
65983;BME280;52740;40.620;-8.640;2022-10-16T08:10:56;101201.72;;;18.17;100.00
65983;BME280;52740;40.620;-8.640;2022-10-16T08:12:57;101203.59;;;18.34;100.00
65983;BME280;52740;40.620;-8.640;2022-10-16T08:14:59;101188.13;;;18.37;100.00
65983;BME280;52740;40.620;-8.640;2022-10-16T08:16:59;101201.94;;;18.44;100.00
65983;BME280;52740;40.620;-8.640;2022-10-16T08:19:02;101192.31;;;18.59;100.00
65983;BME280;52740;40.620;-8.640;2022-10-16T08:21:04;101195.53;;;18.54;100.00
65983;BME280;52740;40.620;-8.640;2022-10-16T08:23:05;101208.09;;;18.66;100.00
65983;BME280;52740;40.620;-8.640;2022-10-16T08:25:07;101191.56;;;18.55;100.00
65983;BME280;52740;40.620;-8.640;2022-10-16T08:27:08;101201.06;;;18.58;100.00
65983;BME280;52740;40.620;-8.640;2022-10-16T08:29:09;101202.94;;;18.68;100.00
65983;BME280;52740;40.620;-8.640;2022-10-16T08:31:14;101201.44;;;18.60;100.00
65983;BME280;52740;40.620;-8.640;2022-10-16T08:33:15;101199.91;;;18.55;100.00
65983;BME280;52740;40.620;-8.640;2022-10-16T08:35:16;101212.13;;;18.61;100.00
65983;BME280;52740;40.620;-8.640;2022-10-16T08:37:17;101199.06;;;18.58;100.00
65983;BME280;52740;40.620;-8.640;2022-10-16T08:39:17;101205.06;;;18.53;100.00
65983;BME280;52740;40.620;-8.640;2022-10-16T08:47:04;101208.47;;;19.12;100.00
65983;BME280;52740;40.620;-8.640;2022-10-16T08:48:47;101201.63;;;19.20;100.00
65983;BME280;52740;40.620;-8.640;2022-10-16T08:50:50;101198.63;;;19.38;100.00
65983;BME280;52740;40.620;-8.640;2022-10-16T08:52:51;101195.72;;;19.52;100.00
65983;BME280;52740;40.620;-8.640;2022-10-16T08:54:54;101199.81;;;19.71;100.00
65983;BME280;52740;40.620;-8.640;2022-10-16T08:57:20;101202.00;;;19.87;100.00
65983;BME280;52740;40.620;-8.640;2022-10-16T08:59:20;101198.50;;;19.79;100.00
65983;BME280;52740;40.620;-8.640;2022-10-16T09:01:22;101216.63;;;19.91;100.00
65983;BME280;52740;40.620;-8.640;2022-10-16T09:08:20;101202.28;;;20.19;100.00
65983;BME280;52740;40.620;-8.640;2022-10-16T09:10:32;101211.00;;;20.21;100.00
65983;BME280;52740;40.620;-8.640;2022-10-16T09:12:54;101206.84;;;20.06;100.00
65983;BME280;52740;40.620;-8.640;2022-10-16T09:15:12;101206.06;;;20.05;100.00
65983;BME280;52740;40.620;-8.640;2022-10-16T09:19:45;101207.06;;;20.18;100.00
65983;BME280;52740;40.620;-8.640;2022-10-16T09:21:47;101210.81;;;20.35;100.00
65983;BME280;52740;40.620;-8.640;2022-10-16T09:23:48;101215.41;;;20.45;100.00
65983;BME280;52740;40.620;-8.640;2022-10-16T09:25:49;101209.28;;;20.57;100.00
65983;BME280;52740;40.620;-8.640;2022-10-16T09:27:52;101215.91;;;20.63;100.00
65983;BME280;52740;40.620;-8.640;2022-10-16T09:29:54;101217.91;;;20.63;100.00
65983;BME280;52740;40.620;-8.640;2022-10-16T09:31:55;101209.19;;;20.61;100.00
65983;BME280;52740;40.620;-8.640;2022-10-16T09:33:59;101209.28;;;20.57;100.00
65983;BME280;52740;40.620;-8.640;2022-10-16T09:36:02;101219.66;;;20.77;100.00
65983;BME280;52740;40.620;-8.640;2022-10-16T09:38:03;101212.03;;;20.81;100.00
65983;BME280;52740;40.620;-8.640;2022-10-16T09:40:05;101227.06;;;21.06;100.00
65983;BME280;52740;40.620;-8.640;2022-10-16T09:42:05;101230.16;;;21.12;100.00
65983;BME280;52740;40.620;-8.640;2022-10-16T09:48:39;101225.13;;;21.27;100.00
65983;BME280;52740;40.620;-8.640;2022-10-16T09:50:43;101227.06;;;21.06;100.00
65983;BME280;52740;40.620;-8.640;2022-10-16T09:52:44;101226.47;;;20.95;100.00
65983;BME280;52740;40.620;-8.640;2022-10-16T09:55:14;101235.53;;;20.80;100.00
65983;BME280;52740;40.620;-8.640;2022-10-16T09:57:16;101225.03;;;20.64;100.00
65983;BME280;52740;40.620;-8.640;2022-10-16T09:59:18;101218.06;;;20.76;100.00
65983;BME280;52740;40.620;-8.640;2022-10-16T10:01:21;101225.84;;;20.88;100.00
65983;BME280;52740;40.620;-8.640;2022-10-16T10:03:43;101218.53;;;20.94;100.00
65983;BME280;52740;40.620;-8.640;2022-10-16T10:05:48;101208.13;;;20.98;100.00
65983;BME280;52740;40.620;-8.640;2022-10-16T10:07:58;101202.44;;;21.05;100.00
65983;BME280;52740;40.620;-8.640;2022-10-16T10:10:00;101205.75;;;21.39;100.00
65983;BME280;52740;40.620;-8.640;2022-10-16T10:12:03;101203.97;;;21.49;100.00
65983;BME280;52740;40.620;-8.640;2022-10-16T10:14:44;101211.09;;;21.70;100.00
65983;BME280;52740;40.620;-8.640;2022-10-16T10:16:46;101213.50;;;21.68;100.00
65983;BME280;52740;40.620;-8.640;2022-10-16T10:18:58;101209.50;;;21.69;100.00
65983;BME280;52740;40.620;-8.640;2022-10-16T10:21:02;101209.81;;;21.74;100.00
65983;BME280;52740;40.620;-8.640;2022-10-16T10:23:22;101205.31;;;21.61;100.00
65983;BME280;52740;40.620;-8.640;2022-10-16T10:32:43;101210.56;;;21.19;100.00
65983;BME280;52740;40.620;-8.640;2022-10-16T10:37:06;101207.63;;;20.83;100.00
65983;BME280;52740;40.620;-8.640;2022-10-16T10:39:36;101206.59;;;20.74;100.00
65983;BME280;52740;40.620;-8.640;2022-10-16T10:41:57;101192.81;;;20.66;100.00
65983;BME280;52740;40.620;-8.640;2022-10-16T10:46:20;101206.47;;;20.57;100.00
65983;BME280;52740;40.620;-8.640;2022-10-16T10:50:54;101188.31;;;20.73;100.00
65983;BME280;52740;40.620;-8.640;2022-10-16T10:58:10;101181.63;;;21.69;100.00
65983;BME280;52740;40.620;-8.640;2022-10-16T11:00:36;101173.28;;;22.21;100.00
65983;BME280;52740;40.620;-8.640;2022-10-16T11:02:43;101178.00;;;22.40;100.00
65983;BME280;52740;40.620;-8.640;2022-10-16T11:05:13;101164.94;;;22.82;100.00
65983;BME280;52740;40.620;-8.640;2022-10-16T11:07:27;101168.03;;;23.00;100.00
65983;BME280;52740;40.620;-8.640;2022-10-16T11:09:40;101183.06;;;23.48;100.00
65983;BME280;52740;40.620;-8.640;2022-10-16T11:11:56;101174.06;;;23.69;100.00
65983;BME280;52740;40.620;-8.640;2022-10-16T11:14:09;101193.66;;;24.07;100.00
65983;BME280;52740;40.620;-8.640;2022-10-16T11:16:43;101170.34;;;24.10;100.00